Bemidji Regional Airport Bemidji US
ICAO: KBJI
IATA: BJI
Category: Medium
Scheduled Services: No

Elevation: 1391 ft
TransAlt. 18000 ft.

Airport Communications:
AWOS 3:119.275
MINNEAPOLIS CNTR:134.75
PRINCETON RDO:123.6
CTAF/UNICOM:122.8

KBJI Zoom In..

Runways:

(A) RW 07 length 5700 ft width 150 ft
---- / hdg 70

(B) RW 13 length 7004 ft width 150 ft
---- / hdg 130

(C) RW 25 length 5700 ft width 150 ft
ILS 109.35 / hdg 250

(D) RW 31 length 7004 ft width 150 ft
ILS 111.90 / hdg 310

Location; KBJI
Day. 23 / Time. 09.55 Zulu
* Altimeter: 30.05
* Temperature: 19° c. 66.2°f.
* Wind from: 000° Speed 00 kn.
Dewpoint: 17° c.
Visibility: 7 Statute Miles.
Clouds: Broken 1700 ft.
Clouds: Overcast 2600 ft.
Conditions: Light Rain.

KBJI 230955Z AUTO 00000KT 7SM -RA BKN017 OVC026 19/17 A3005 RMK AO2 LTG DSNT N T01850172


Wind - Calm.

 
 
jpsmedia.com for Web Design worldairports.se 2018   terms of use